sensor_id;sensor_type;location;lat;lon;timestamp;pressure;altitude;pressure_sealevel;temperature;humidity
55070;BME280;40967;52.070;8.596;2023-03-21T00:01:52;100618.75;;;8.32;97.31
55070;BME280;40967;52.070;8.596;2023-03-21T00:04:19;100615.22;;;8.31;97.09
55070;BME280;40967;52.070;8.596;2023-03-21T00:06:45;100624.47;;;8.35;97.36
55070;BME280;40967;52.070;8.596;2023-03-21T00:09:11;100619.06;;;8.35;97.71
55070;BME280;40967;52.070;8.596;2023-03-21T00:11:36;100607.63;;;8.28;97.58
55070;BME280;40967;52.070;8.596;2023-03-21T00:14:02;100612.00;;;8.34;97.44
55070;BME280;40967;52.070;8.596;2023-03-21T00:16:28;100615.28;;;8.36;97.67
55070;BME280;40967;52.070;8.596;2023-03-21T00:18:55;100606.06;;;8.32;97.73
55070;BME280;40967;52.070;8.596;2023-03-21T00:21:23;100606.38;;;8.36;97.92
55070;BME280;40967;52.070;8.596;2023-03-21T00:23:57;100606.38;;;8.36;98.06
55070;BME280;40967;52.070;8.596;2023-03-21T00:26:23;100603.69;;;8.36;97.57
55070;BME280;40967;52.070;8.596;2023-03-21T00:28:49;100607.75;;;8.38;97.33
55070;BME280;40967;52.070;8.596;2023-03-21T00:31:15;100598.50;;;8.34;98.04
55070;BME280;40967;52.070;8.596;2023-03-21T00:33:41;100602.03;;;8.35;98.01
55070;BME280;40967;52.070;8.596;2023-03-21T00:36:07;100592.88;;;8.36;98.11
55070;BME280;40967;52.070;8.596;2023-03-21T00:38:34;100592.88;;;8.36;98.09
55070;BME280;40967;52.070;8.596;2023-03-21T00:41:10;100591.78;;;8.37;98.70
55070;BME280;40967;52.070;8.596;2023-03-21T00:43:36;100584.50;;;8.37;98.48
55070;BME280;40967;52.070;8.596;2023-03-21T00:46:03;100586.13;;;8.38;98.16
55070;BME280;40967;52.070;8.596;2023-03-21T00:48:29;100587.75;;;8.39;98.69
55070;BME280;40967;52.070;8.596;2023-03-21T00:50:56;100587.75;;;8.39;98.97
55070;BME280;40967;52.070;8.596;2023-03-21T00:53:23;100577.44;;;8.36;98.84
55070;BME280;40967;52.070;8.596;2023-03-21T00:55:49;100576.69;;;8.41;98.59
55070;BME280;40967;52.070;8.596;2023-03-21T00:58:15;100571.53;;;8.39;98.96
55070;BME280;40967;52.070;8.596;2023-03-21T01:00:41;100572.09;;;8.41;98.90
55070;BME280;40967;52.070;8.596;2023-03-21T01:03:10;100569.38;;;8.41;99.17
55070;BME280;40967;52.070;8.596;2023-03-21T01:05:38;100572.91;;;8.42;99.08
55070;BME280;40967;52.070;8.596;2023-03-21T01:08:23;100563.41;;;8.39;99.80
55070;BME280;40967;52.070;8.596;2023-03-21T01:10:49;100568.81;;;8.39;100.00
55070;BME280;40967;52.070;8.596;2023-03-21T01:13:18;100567.19;;;8.38;100.00
55070;BME280;40967;52.070;8.596;2023-03-21T01:15:49;100566.38;;;8.38;100.00
55070;BME280;40967;52.070;8.596;2023-03-21T01:18:17;100566.09;;;8.39;100.00
55070;BME280;40967;52.070;8.596;2023-03-21T01:20:43;100559.59;;;8.35;100.00
55070;BME280;40967;52.070;8.596;2023-03-21T01:23:10;100565.53;;;8.32;100.00
55070;BME280;40967;52.070;8.596;2023-03-21T01:25:36;100564.69;;;8.32;100.00
55070;BME280;40967;52.070;8.596;2023-03-21T01:28:02;100576.56;;;8.31;100.00
55070;BME280;40967;52.070;8.596;2023-03-21T01:30:27;100558.72;;;8.30;100.00
55070;BME280;40967;52.070;8.596;2023-03-21T01:32:53;100559.28;;;8.32;100.00
55070;BME280;40967;52.070;8.596;2023-03-21T01:35:18;100561.72;;;8.33;100.00
55070;BME280;40967;52.070;8.596;2023-03-21T01:37:44;100541.09;;;8.27;100.00
55070;BME280;40967;52.070;8.596;2023-03-21T01:40:30;100555.50;;;8.33;100.00
55070;BME280;40967;52.070;8.596;2023-03-21T01:42:55;100553.88;;;8.32;100.00
55070;BME280;40967;52.070;8.596;2023-03-21T01:48:26;100556.31;;;8.33;100.00
55070;BME280;40967;52.070;8.596;2023-03-21T01:50:54;100547.13;;;8.34;100.00
55070;BME280;40967;52.070;8.596;2023-03-21T01:53:23;100533.88;;;8.33;100.00
55070;BME280;40967;52.070;8.596;2023-03-21T01:55:55;100545.56;;;8.38;100.00
55070;BME280;40967;52.070;8.596;2023-03-21T01:58:21;100534.19;;;8.36;100.00
55070;BME280;40967;52.070;8.596;2023-03-21T02:00:49;100538.59;;;8.42;100.00
55070;BME280;40967;52.070;8.596;2023-03-21T02:03:18;100531.84;;;8.45;100.00
55070;BME280;40967;52.070;8.596;2023-03-21T02:08:17;100534.84;;;8.48;100.00
55070;BME280;40967;52.070;8.596;2023-03-21T02:10:44;100529.44;;;8.48;100.00
55070;BME280;40967;52.070;8.596;2023-03-21T02:13:10;100530.56;;;8.52;100.00
55070;BME280;40967;52.070;8.596;2023-03-21T02:15:37;100525.16;;;8.52;100.00
55070;BME280;40967;52.070;8.596;2023-03-21T02:26:09;100515.75;;;8.55;100.00
55070;BME280;40967;52.070;8.596;2023-03-21T02:28:46;100516.53;;;8.55;100.00
55070;BME280;40967;52.070;8.596;2023-03-21T02:31:27;100513.56;;;8.57;100.00
55070;BME280;40967;52.070;8.596;2023-03-21T02:39:27;100507.84;;;8.53;100.00
55070;BME280;40967;52.070;8.596;2023-03-21T02:42:08;100507.63;;;8.55;100.00
55070;BME280;40967;52.070;8.596;2023-03-21T02:44:45;100502.75;;;8.57;100.00
55070;BME280;40967;52.070;8.596;2023-03-21T02:52:37;100493.31;;;8.59;100.00
55070;BME280;40967;52.070;8.596;2023-03-21T02:55:05;100497.66;;;8.60;100.00
55070;BME280;40967;52.070;8.596;2023-03-21T02:57:32;100496.53;;;8.56;100.00
55070;BME280;40967;52.070;8.596;2023-03-21T02:59:58;100491.31;;;8.50;100.00
55070;BME280;40967;52.070;8.596;2023-03-21T03:02:29;100498.91;;;8.48;100.00
55070;BME280;40967;52.070;8.596;2023-03-21T03:04:55;100494.50;;;8.42;100.00
55070;BME280;40967;52.070;8.596;2023-03-21T03:07:26;100500.22;;;8.45;100.00
55070;BME280;40967;52.070;8.596;2023-03-21T03:18:27;100494.50;;;8.42;100.00
55070;BME280;40967;52.070;8.596;2023-03-21T03:23:53;100488.28;;;8.41;100.00
55070;BME280;40967;52.070;8.596;2023-03-21T03:26:26;100480.69;;;8.38;100.00
55070;BME280;40967;52.070;8.596;2023-03-21T03:28:57;100487.47;;;8.41;100.00
55070;BME280;40967;52.070;8.596;2023-03-21T03:31:38;100486.91;;;8.39;100.00
55070;BME280;40967;52.070;8.596;2023-03-21T03:34:09;100485.53;;;8.36;100.00
55070;BME280;40967;52.070;8.596;2023-03-21T03:36:40;100484.47;;;8.37;100.00
55070;BME280;40967;52.070;8.596;2023-03-21T03:39:10;100487.19;;;8.37;100.00
55070;BME280;40967;52.070;8.596;2023-03-21T03:41:42;100471.69;;;8.33;100.00
55070;BME280;40967;52.070;8.596;2023-03-21T03:44:09;100471.41;;;8.29;100.00
55070;BME280;40967;52.070;8.596;2023-03-21T03:46:40;100483.59;;;8.32;100.00
55070;BME280;40967;52.070;8.596;2023-03-21T03:49:14;100476.00;;;8.29;100.00
55070;BME280;40967;52.070;8.596;2023-03-21T03:51:53;100471.13;;;8.31;100.00
55070;BME280;40967;52.070;8.596;2023-03-21T03:54:25;100473.63;;;8.32;100.00
55070;BME280;40967;52.070;8.596;2023-03-21T03:56:53;100475.22;;;8.33;100.00
55070;BME280;40967;52.070;8.596;2023-03-21T03:59:18;100466.56;;;8.31;100.00
55070;BME280;40967;52.070;8.596;2023-03-21T04:01:47;100464.69;;;8.32;100.00
55070;BME280;40967;52.070;8.596;2023-03-21T04:04:13;100473.09;;;8.35;100.00
55070;BME280;40967;52.070;8.596;2023-03-21T04:06:43;100460.59;;;8.29;100.00
55070;BME280;40967;52.070;8.596;2023-03-21T04:09:16;100469.88;;;8.38;100.00
55070;BME280;40967;52.070;8.596;2023-03-21T04:11:41;100461.75;;;8.38;100.00
55070;BME280;40967;52.070;8.596;2023-03-21T04:14:07;100453.91;;;8.37;100.00
55070;BME280;40967;52.070;8.596;2023-03-21T04:16:32;100460.13;;;8.37;100.00
55070;BME280;40967;52.070;8.596;2023-03-21T04:18:57;100463.38;;;8.39;100.00
55070;BME280;40967;52.070;8.596;2023-03-21T04:21:23;100457.19;;;8.39;100.00
55070;BME280;40967;52.070;8.596;2023-03-21T04:23:48;100450.44;;;8.41;100.00
55070;BME280;40967;52.070;8.596;2023-03-21T04:26:14;100453.66;;;8.38;100.00
55070;BME280;40967;52.070;8.596;2023-03-21T04:28:39;100460.50;;;8.46;100.00
55070;BME280;40967;52.070;8.596;2023-03-21T04:31:06;100458.03;;;8.44;100.00
55070;BME280;40967;52.070;8.596;2023-03-21T04:33:31;100458.34;;;8.48;100.00
55070;BME280;40967;52.070;8.596;2023-03-21T04:36:03;100461.84;;;8.48;100.00
55070;BME280;40967;52.070;8.596;2023-03-21T04:38:30;100458.09;;;8.49;100.00
55070;BME280;40967;52.070;8.596;2023-03-21T04:40:56;100459.13;;;8.48;100.00
55070;BME280;40967;52.070;8.596;2023-03-21T04:43:22;100451.00;;;8.43;100.00
55070;BME280;40967;52.070;8.596;2023-03-21T04:45:48;100452.34;;;8.41;100.00
55070;BME280;40967;52.070;8.596;2023-03-21T04:48:14;100446.09;;;8.40;100.00
55070;BME280;40967;52.070;8.596;2023-03-21T04:50:42;100432.03;;;8.38;100.00
55070;BME280;40967;52.070;8.596;2023-03-21T04:53:08;100432.84;;;8.39;100.00
55070;BME280;40967;52.070;8.596;2023-03-21T04:55:33;100430.16;;;8.39;100.00
55070;BME280;40967;52.070;8.596;2023-03-21T04:58:02;100432.59;;;8.40;100.00
55070;BME280;40967;52.070;8.596;2023-03-21T05:00:27;100429.31;;;8.38;100.00
55070;BME280;40967;52.070;8.596;2023-03-21T05:02:52;100427.19;;;8.40;100.00
55070;BME280;40967;52.070;8.596;2023-03-21T05:05:18;100421.78;;;8.40;100.00
55070;BME280;40967;52.070;8.596;2023-03-21T05:07:46;100429.63;;;8.42;100.00
55070;BME280;40967;52.070;8.596;2023-03-21T05:10:11;100427.69;;;8.37;100.00
55070;BME280;40967;52.070;8.596;2023-03-21T05:12:37;100428.22;;;8.39;100.00
55070;BME280;40967;52.070;8.596;2023-03-21T05:15:03;100434.72;;;8.38;100.00
55070;BME280;40967;52.070;8.596;2023-03-21T05:17:29;100430.94;;;8.39;100.00
55070;BME280;40967;52.070;8.596;2023-03-21T05:19:58;100428.78;;;8.41;100.00
55070;BME280;40967;52.070;8.596;2023-03-21T05:22:24;100426.66;;;8.43;100.00
55070;BME280;40967;52.070;8.596;2023-03-21T05:24:51;100417.97;;;8.41;100.00
55070;BME280;40967;52.070;8.596;2023-03-21T05:27:20;100429.91;;;8.45;100.00
55070;BME280;40967;52.070;8.596;2023-03-21T05:32:31;100430.22;;;8.49;100.00
55070;BME280;40967;52.070;8.596;2023-03-21T05:34:57;100429.41;;;8.48;100.00
55070;BME280;40967;52.070;8.596;2023-03-21T05:37:23;100426.19;;;8.51;100.00
55070;BME280;40967;52.070;8.596;2023-03-21T05:39:48;100429.44;;;8.53;100.00
55070;BME280;40967;52.070;8.596;2023-03-21T05:42:14;100430.00;;;8.55;100.00
55070;BME280;40967;52.070;8.596;2023-03-21T05:44:40;100423.53;;;8.56;100.00
55070;BME280;40967;52.070;8.596;2023-03-21T05:47:05;100432.19;;;8.58;100.00
55070;BME280;40967;52.070;8.596;2023-03-21T05:49:31;100427.84;;;8.57;100.00
55070;BME280;40967;52.070;8.596;2023-03-21T05:51:57;100423.56;;;8.61;100.00
55070;BME280;40967;52.070;8.596;2023-03-21T05:54:22;100426.28;;;8.61;100.00
55070;BME280;40967;52.070;8.596;2023-03-21T05:56:48;100429.53;;;8.63;100.00
55070;BME280;40967;52.070;8.596;2023-03-21T05:59:13;100431.16;;;8.64;100.00
55070;BME280;40967;52.070;8.596;2023-03-21T06:01:43;100431.47;;;8.68;100.00
55070;BME280;40967;52.070;8.596;2023-03-21T06:04:09;100423.59;;;8.66;100.00
55070;BME280;40967;52.070;8.596;2023-03-21T06:06:34;100426.59;;;8.70;100.00
55070;BME280;40967;52.070;8.596;2023-03-21T06:09:00;100423.63;;;8.71;100.00
55070;BME280;40967;52.070;8.596;2023-03-21T06:11:28;100419.84;;;8.72;100.00
55070;BME280;40967;52.070;8.596;2023-03-21T06:13:54;100425.25;;;8.72;100.00
55070;BME280;40967;52.070;8.596;2023-03-21T06:16:20;100426.38;;;8.76;100.00
55070;BME280;40967;52.070;8.596;2023-03-21T06:18:45;100428.81;;;8.78;100.00
55070;BME280;40967;52.070;8.596;2023-03-21T06:21:10;100423.41;;;8.78;100.00
55070;BME280;40967;52.070;8.596;2023-03-21T06:23:36;100434.81;;;8.85;100.00
55070;BME280;40967;52.070;8.596;2023-03-21T06:26:02;100433.50;;;8.87;100.00
55070;BME280;40967;52.070;8.596;2023-03-21T06:28:30;100425.94;;;8.89;100.00
55070;BME280;40967;52.070;8.596;2023-03-21T06:30:55;100432.72;;;8.92;100.00
55070;BME280;40967;52.070;8.596;2023-03-21T06:33:20;100430.25;;;8.90;100.00
55070;BME280;40967;52.070;8.596;2023-03-21T06:35:53;100435.19;;;8.98;100.00
55070;BME280;40967;52.070;8.596;2023-03-21T06:38:19;100429.28;;;9.01;100.00
55070;BME280;40967;52.070;8.596;2023-03-21T06:40:45;100417.06;;;8.99;100.00
55070;BME280;40967;52.070;8.596;2023-03-21T06:43:11;100420.63;;;9.04;100.00
55070;BME280;40967;52.070;8.596;2023-03-21T06:45:37;100425.22;;;9.09;100.00
55070;BME280;40967;52.070;8.596;2023-03-21T06:48:02;100419.81;;;9.09;100.00
55070;BME280;40967;52.070;8.596;2023-03-21T06:50:28;100426.06;;;9.09;100.00
55070;BME280;40967;52.070;8.596;2023-03-21T06:52:53;100433.38;;;9.14;100.00
55070;BME280;40967;52.070;8.596;2023-03-21T06:55:18;100427.72;;;9.15;100.00
55070;BME280;40967;52.070;8.596;2023-03-21T06:57:50;100431.53;;;9.19;100.00
55070;BME280;40967;52.070;8.596;2023-03-21T07:00:16;100429.38;;;9.22;100.00
55070;BME280;40967;52.070;8.596;2023-03-21T07:02:42;100426.13;;;9.25;100.00
55070;BME280;40967;52.070;8.596;2023-03-21T07:05:07;100428.03;;;9.24;100.00
55070;BME280;40967;52.070;8.596;2023-03-21T07:07:33;100431.28;;;9.26;100.00
55070;BME280;40967;52.070;8.596;2023-03-21T07:09:58;100430.25;;;9.32;100.00
55070;BME280;40967;52.070;8.596;2023-03-21T07:12:24;100428.66;;;9.36;100.00
55070;BME280;40967;52.070;8.596;2023-03-21T07:14:49;100424.59;;;9.39;99.97
55070;BME280;40967;52.070;8.596;2023-03-21T07:17:15;100435.16;;;9.45;99.68
55070;BME280;40967;52.070;8.596;2023-03-21T07:19:40;100427.59;;;9.47;99.36
55070;BME280;40967;52.070;8.596;2023-03-21T07:22:06;100421.38;;;9.47;99.18
55070;BME280;40967;52.070;8.596;2023-03-21T07:24:31;100432.25;;;9.57;99.21
55070;BME280;40967;52.070;8.596;2023-03-21T07:26:56;100432.53;;;9.60;98.68
55070;BME280;40967;52.070;8.596;2023-03-21T07:29:22;100434.97;;;9.62;98.09
55070;BME280;40967;52.070;8.596;2023-03-21T07:31:49;100430.66;;;9.61;98.20
55070;BME280;40967;52.070;8.596;2023-03-21T07:34:15;100427.94;;;9.61;98.12
55070;BME280;40967;52.070;8.596;2023-03-21T07:36:42;100436.09;;;9.66;98.15
55070;BME280;40967;52.070;8.596;2023-03-21T07:39:07;100429.00;;;9.60;97.93
55070;BME280;40967;52.070;8.596;2023-03-21T07:41:32;100427.69;;;9.62;97.66
55070;BME280;40967;52.070;8.596;2023-03-21T07:43:58;100434.72;;;9.68;97.81
55070;BME280;40967;52.070;8.596;2023-03-21T07:46:23;100439.38;;;9.73;97.50
55070;BME280;40967;52.070;8.596;2023-03-21T07:48:49;100435.28;;;9.75;97.50
55070;BME280;40967;52.070;8.596;2023-03-21T07:51:14;100435.88;;;9.82;97.36
55070;BME280;40967;52.070;8.596;2023-03-21T07:53:39;100436.41;;;9.84;97.33
55070;BME280;40967;52.070;8.596;2023-03-21T07:56:09;100430.44;;;9.87;97.05
55070;BME280;40967;52.070;8.596;2023-03-21T07:58:34;100437.81;;;9.92;97.16
55070;BME280;40967;52.070;8.596;2023-03-21T08:01:00;100430.44;;;9.87;97.19
55070;BME280;40967;52.070;8.596;2023-03-21T08:03:26;100429.13;;;9.90;97.29
55070;BME280;40967;52.070;8.596;2023-03-21T08:05:54;100434.53;;;9.90;97.49
55070;BME280;40967;52.070;8.596;2023-03-21T08:08:20;100439.69;;;9.86;98.01
55070;BME280;40967;52.070;8.596;2023-03-21T08:10:48;100431.00;;;9.84;98.32
55070;BME280;40967;52.070;8.596;2023-03-21T08:13:13;100441.56;;;9.81;99.04
55070;BME280;40967;52.070;8.596;2023-03-21T08:15:39;100441.28;;;9.87;98.80
55070;BME280;40967;52.070;8.596;2023-03-21T08:18:06;100436.69;;;9.88;98.89
55070;BME280;40967;52.070;8.596;2023-03-21T08:20:32;100442.94;;;9.88;99.10
55070;BME280;40967;52.070;8.596;2023-03-21T08:22:57;100442.13;;;9.88;98.72
55070;BME280;40967;52.070;8.596;2023-03-21T08:25:23;100441.03;;;9.89;98.82
55070;BME280;40967;52.070;8.596;2023-03-21T08:27:49;100432.88;;;9.89;99.16
55070;BME280;40967;52.070;8.596;2023-03-21T08:30:18;100441.84;;;9.89;99.39
55070;BME280;40967;52.070;8.596;2023-03-21T08:32:45;100439.66;;;9.81;99.83
55070;BME280;40967;52.070;8.596;2023-03-21T08:35:12;100438.84;;;9.81;100.00
55070;BME280;40967;52.070;8.596;2023-03-21T08:37:39;100443.72;;;9.84;100.00
55070;BME280;40967;52.070;8.596;2023-03-21T08:40:06;100439.66;;;9.81;100.00
55070;BME280;40967;52.070;8.596;2023-03-21T08:42:36;100449.13;;;9.84;100.00
55070;BME280;40967;52.070;8.596;2023-03-21T08:45:01;100444.25;;;9.81;100.00
55070;BME280;40967;52.070;8.596;2023-03-21T08:47:27;100452.41;;;9.86;100.00
55070;BME280;40967;52.070;8.596;2023-03-21T08:49:52;100441.00;;;9.84;100.00
55070;BME280;40967;52.070;8.596;2023-03-21T08:52:17;100433.16;;;9.87;100.00
55070;BME280;40967;52.070;8.596;2023-03-21T08:54:43;100443.72;;;9.89;100.00
55070;BME280;40967;52.070;8.596;2023-03-21T08:57:09;100442.66;;;9.85;100.00
55070;BME280;40967;52.070;8.596;2023-03-21T08:59:35;100438.28;;;9.79;100.00
55070;BME280;40967;52.070;8.596;2023-03-21T09:02:01;100445.31;;;9.75;100.00
55070;BME280;40967;52.070;8.596;2023-03-21T09:04:27;100442.31;;;9.71;100.00
55070;BME280;40967;52.070;8.596;2023-03-21T09:06:54;100438.81;;;9.71;100.00
55070;BME280;40967;52.070;8.596;2023-03-21T09:09:20;100451.81;;;9.74;100.00
55070;BME280;40967;52.070;8.596;2023-03-21T09:11:45;100447.22;;;9.74;100.00
55070;BME280;40967;52.070;8.596;2023-03-21T09:14:11;100435.00;;;9.72;100.00
55070;BME280;40967;52.070;8.596;2023-03-21T09:16:36;100437.47;;;9.78;100.00
55070;BME280;40967;52.070;8.596;2023-03-21T09:19:02;100443.16;;;9.82;100.00
55070;BME280;40967;52.070;8.596;2023-03-21T09:21:28;100439.41;;;9.83;100.00
55070;BME280;40967;52.070;8.596;2023-03-21T09:23:54;100442.66;;;9.80;100.00
55070;BME280;40967;52.070;8.596;2023-03-21T09:26:23;100443.97;;;9.77;100.00
55070;BME280;40967;52.070;8.596;2023-03-21T09:28:53;100442.34;;;9.76;100.00
55070;BME280;40967;52.070;8.596;2023-03-21T09:31:20;100445.31;;;9.75;100.00
55070;BME280;40967;52.070;8.596;2023-03-21T09:33:48;100448.84;;;9.75;100.00
55070;BME280;40967;52.070;8.596;2023-03-21T09:36:15;100447.78;;;9.76;100.00
55070;BME280;40967;52.070;8.596;2023-03-21T09:38:46;100449.94;;;9.74;100.00
55070;BME280;40967;52.070;8.596;2023-03-21T09:49:21;100436.06;;;9.61;100.00
55070;BME280;40967;52.070;8.596;2023-03-21T09:51:51;100442.03;;;9.68;100.00
55070;BME280;40967;52.070;8.596;2023-03-21T09:56:54;100436.66;;;9.78;100.00
55070;BME280;40967;52.070;8.596;2023-03-21T09:59:35;100438.03;;;9.80;100.00
55070;BME280;40967;52.070;8.596;2023-03-21T10:02:09;100432.88;;;9.84;100.00
55070;BME280;40967;52.070;8.596;2023-03-21T10:04:43;100432.88;;;9.79;100.00
55070;BME280;40967;52.070;8.596;2023-03-21T10:07:12;100429.88;;;9.80;100.00
55070;BME280;40967;52.070;8.596;2023-03-21T10:09:44;100430.72;;;9.81;100.00
55070;BME280;40967;52.070;8.596;2023-03-21T10:12:29;100427.47;;;9.84;100.00
55070;BME280;40967;52.070;8.596;2023-03-21T10:14:57;100429.91;;;9.85;100.00
55070;BME280;40967;52.070;8.596;2023-03-21T10:17:28;100431.28;;;9.88;100.00
55070;BME280;40967;52.070;8.596;2023-03-21T10:20:19;100427.47;;;9.89;100.00
55070;BME280;40967;52.070;8.596;2023-03-21T10:22:46;100423.69;;;9.90;100.00
55070;BME280;40967;52.070;8.596;2023-03-21T10:25:31;100425.31;;;9.86;100.00
55070;BME280;40967;52.070;8.596;2023-03-21T10:27:58;100423.16;;;9.88;100.00
55070;BME280;40967;52.070;8.596;2023-03-21T10:30:34;100420.44;;;9.88;100.00
55070;BME280;40967;52.070;8.596;2023-03-21T10:33:03;100410.94;;;9.85;100.00
55070;BME280;40967;52.070;8.596;2023-03-21T10:35:34;100406.34;;;9.91;100.00
55070;BME280;40967;52.070;8.596;2023-03-21T10:38:05;100418.84;;;9.97;100.00
55070;BME280;40967;52.070;8.596;2023-03-21T10:40:31;100411.53;;;10.02;100.00
55070;BME280;40967;52.070;8.596;2023-03-21T10:43:16;100406.41;;;10.06;100.00
55070;BME280;40967;52.070;8.596;2023-03-21T10:45:45;100399.88;;;10.07;100.00
55070;BME280;40967;52.070;8.596;2023-03-21T10:48:11;100413.47;;;10.17;100.00
55070;BME280;40967;52.070;8.596;2023-03-21T10:50:36;100406.44;;;10.21;100.00
55070;BME280;40967;52.070;8.596;2023-03-21T10:53:02;100395.59;;;10.21;100.00
55070;BME280;40967;52.070;8.596;2023-03-21T10:55:34;100402.38;;;10.28;100.00
55070;BME280;40967;52.070;8.596;2023-03-21T10:58:14;100390.16;;;10.31;100.00
55070;BME280;40967;52.070;8.596;2023-03-21T11:00:43;100399.94;;;10.37;100.00
55070;BME280;40967;52.070;8.596;2023-03-21T11:03:21;100392.31;;;10.39;100.00
55070;BME280;40967;52.070;8.596;2023-03-21T11:05:47;100397.22;;;10.37;100.00
55070;BME280;40967;52.070;8.596;2023-03-21T11:08:17;100404.28;;;10.43;100.00
55070;BME280;40967;52.070;8.596;2023-03-21T11:11:03;100389.63;;;10.49;100.00
55070;BME280;40967;52.070;8.596;2023-03-21T11:13:56;100396.69;;;10.50;100.00
55070;BME280;40967;52.070;8.596;2023-03-21T11:16:24;100400.22;;;10.56;100.00
55070;BME280;40967;52.070;8.596;2023-03-21T11:18:58;100385.81;;;10.55;100.00
55070;BME280;40967;52.070;8.596;2023-03-21T11:21:24;100389.91;;;10.53;100.00
55070;BME280;40967;52.070;8.596;2023-03-21T11:23:53;100381.22;;;10.46;100.00
55070;BME280;40967;52.070;8.596;2023-03-21T11:26:25;100391.53;;;10.49;100.00
55070;BME280;40967;52.070;8.596;2023-03-21T11:28:52;100394.25;;;10.44;100.00
55070;BME280;40967;52.070;8.596;2023-03-21T11:31:18;100395.06;;;10.44;100.00
55070;BME280;40967;52.070;8.596;2023-03-21T11:33:51;100386.66;;;10.46;100.00
55070;BME280;40967;52.070;8.596;2023-03-21T11:38:47;100379.03;;;10.43;100.00
55070;BME280;40967;52.070;8.596;2023-03-21T11:41:29;100386.38;;;10.47;100.00
55070;BME280;40967;52.070;8.596;2023-03-21T11:43:56;100369.81;;;10.49;100.00
55070;BME280;40967;52.070;8.596;2023-03-21T11:46:24;100370.09;;;10.52;100.00
55070;BME280;40967;52.070;8.596;2023-03-21T11:48:52;100375.25;;;10.59;100.00
55070;BME280;40967;52.070;8.596;2023-03-21T11:54:30;100358.13;;;10.58;100.00
55070;BME280;40967;52.070;8.596;2023-03-21T11:59:50;100355.97;;;10.70;100.00
55070;BME280;40967;52.070;8.596;2023-03-21T12:05:27;100356.78;;;10.66;100.00
55070;BME280;40967;52.070;8.596;2023-03-21T12:10:42;100332.09;;;10.62;100.00
55070;BME280;40967;52.070;8.596;2023-03-21T12:15:56;100341.06;;;10.63;100.00
55070;BME280;40967;52.070;8.596;2023-03-21T12:21:18;100334.81;;;10.62;100.00
55070;BME280;40967;52.070;8.596;2023-03-21T12:26:39;100323.69;;;10.64;100.00
55070;BME280;40967;52.070;8.596;2023-03-21T12:29:30;100321.50;;;10.66;100.00
55070;BME280;40967;52.070;8.596;2023-03-21T12:31:59;100323.69;;;10.64;100.00
55070;BME280;40967;52.070;8.596;2023-03-21T12:34:52;100313.13;;;10.57;100.00
55070;BME280;40967;52.070;8.596;2023-03-21T12:45:39;100311.50;;;10.56;100.00
55070;BME280;40967;52.070;8.596;2023-03-21T12:48:24;100297.13;;;10.56;100.00
55070;BME280;40967;52.070;8.596;2023-03-21T12:50:53;100297.66;;;10.58;100.00
55070;BME280;40967;52.070;8.596;2023-03-21T12:53:48;100295.75;;;10.63;100.00
55070;BME280;40967;52.070;8.596;2023-03-21T12:56:19;100288.94;;;10.66;100.00
55070;BME280;40967;52.070;8.596;2023-03-21T12:58:51;100294.34;;;10.71;100.00
55070;BME280;40967;52.070;8.596;2023-03-21T13:01:20;100285.94;;;10.72;100.00
55070;BME280;40967;52.070;8.596;2023-03-21T13:06:59;100280.50;;;10.77;100.00
55070;BME280;40967;52.070;8.596;2023-03-21T13:09:39;100283.75;;;10.79;100.00
55070;BME280;40967;52.070;8.596;2023-03-21T13:15:26;100288.63;;;10.87;100.00
55070;BME280;40967;52.070;8.596;2023-03-21T13:18:15;100290.25;;;10.83;100.00
55070;BME280;40967;52.070;8.596;2023-03-21T13:20:55;100292.72;;;10.75;100.00
55070;BME280;40967;52.070;8.596;2023-03-21T13:23:22;100285.41;;;10.75;100.00
55070;BME280;40967;52.070;8.596;2023-03-21T13:25:50;100284.59;;;10.75;100.00
55070;BME280;40967;52.070;8.596;2023-03-21T13:28:20;100276.44;;;10.75;100.00
55070;BME280;40967;52.070;8.596;2023-03-21T13:30:46;100265.59;;;10.75;100.00
55070;BME280;40967;52.070;8.596;2023-03-21T13:33:27;100256.06;;;10.82;100.00
55070;BME280;40967;52.070;8.596;2023-03-21T13:36:05;100255.25;;;10.87;100.00
55070;BME280;40967;52.070;8.596;2023-03-21T13:38:34;100259.25;;;10.99;100.00
55070;BME280;40967;52.070;8.596;2023-03-21T13:41:07;100260.56;;;11.07;100.00
55070;BME280;40967;52.070;8.596;2023-03-21T13:46:14;100249.94;;;11.15;100.00
55070;BME280;40967;52.070;8.596;2023-03-21T13:49:13;100247.19;;;11.25;100.00
55070;BME280;40967;52.070;8.596;2023-03-21T13:51:51;100246.91;;;11.27;100.00
55070;BME280;40967;52.070;8.596;2023-03-21T13:54:47;100226.00;;;11.22;100.00
55070;BME280;40967;52.070;8.596;2023-03-21T14:03:06;100214.47;;;11.40;100.00
55070;BME280;40967;52.070;8.596;2023-03-21T14:05:39;100213.09;;;11.48;100.00
55070;BME280;40967;52.070;8.596;2023-03-21T14:08:09;100214.38;;;11.56;100.00
55070;BME280;40967;52.070;8.596;2023-03-21T14:10:47;100212.19;;;11.58;100.00
55070;BME280;40967;52.070;8.596;2023-03-21T14:13:22;100201.28;;;11.63;100.00
55070;BME280;40967;52.070;8.596;2023-03-21T14:15:54;100193.09;;;11.68;100.00
55070;BME280;40967;52.070;8.596;2023-03-21T14:18:25;100194.22;;;11.67;100.00
55070;BME280;40967;52.070;8.596;2023-03-21T14:20:53;100182.81;;;11.65;100.00
55070;BME280;40967;52.070;8.596;2023-03-21T14:23:19;100179.00;;;11.66;100.00
55070;BME280;40967;52.070;8.596;2023-03-21T14:25:45;100184.97;;;11.63;100.00
55070;BME280;40967;52.070;8.596;2023-03-21T14:28:25;100178.75;;;11.62;100.00
55070;BME280;40967;52.070;8.596;2023-03-21T14:30:58;100174.66;;;11.65;100.00
55070;BME280;40967;52.070;8.596;2023-03-21T14:33:34;100174.59;;;11.70;100.00
55070;BME280;40967;52.070;8.596;2023-03-21T14:36:08;100167.00;;;11.72;100.00